sensor_id;sensor_type;location;lat;lon;timestamp;pressure;altitude;pressure_sealevel;temperature;humidity
26487;BME280;14425;56.136;40.360;2023-06-26T00:00:55;99500.72;;;14.10;100.00
26487;BME280;14425;56.136;40.360;2023-06-26T00:03:24;99499.72;;;14.01;100.00
26487;BME280;14425;56.136;40.360;2023-06-26T00:05:49;99494.72;;;14.12;100.00
26487;BME280;14425;56.136;40.360;2023-06-26T00:08:16;99490.31;;;14.08;100.00
26487;BME280;14425;56.136;40.360;2023-06-26T00:10:41;99494.81;;;14.17;100.00
26487;BME280;14425;56.136;40.360;2023-06-26T00:13:07;99488.63;;;14.10;100.00
26487;BME280;14425;56.136;40.360;2023-06-26T00:15:32;99494.53;;;14.01;100.00
26487;BME280;14425;56.136;40.360;2023-06-26T00:17:59;99497.16;;;14.03;100.00
26487;BME280;14425;56.136;40.360;2023-06-26T00:20:24;99496.16;;;13.96;100.00
26487;BME280;14425;56.136;40.360;2023-06-26T00:22:50;99499.34;;;13.83;100.00
26487;BME280;14425;56.136;40.360;2023-06-26T00:25:16;99493.38;;;13.87;100.00
26487;BME280;14425;56.136;40.360;2023-06-26T00:27:41;99501.03;;;13.81;100.00
26487;BME280;14425;56.136;40.360;2023-06-26T00:30:08;99491.53;;;13.80;100.00
26487;BME280;14425;56.136;40.360;2023-06-26T00:32:33;99487.25;;;13.83;100.00
26487;BME280;14425;56.136;40.360;2023-06-26T00:34:59;99488.13;;;13.84;100.00
26487;BME280;14425;56.136;40.360;2023-06-26T00:37:24;99489.75;;;13.79;100.00
26487;BME280;14425;56.136;40.360;2023-06-26T00:39:50;57093.69;;;-145.77;100.00
26487;BME280;14425;56.136;40.360;2023-06-26T00:42:15;57093.69;;;-145.77;100.00
26487;BME280;14425;56.136;40.360;2023-06-26T00:44:41;57093.69;;;-145.77;100.00
26487;BME280;14425;56.136;40.360;2023-06-26T00:47:15;57093.69;;;-145.77;100.00
26487;BME280;14425;56.136;40.360;2023-06-26T00:49:41;57093.69;;;-145.77;100.00
26487;BME280;14425;56.136;40.360;2023-06-26T00:52:07;57093.69;;;-145.77;100.00
26487;BME280;14425;56.136;40.360;2023-06-26T00:54:33;57093.69;;;-145.77;100.00
26487;BME280;14425;56.136;40.360;2023-06-26T00:56:58;57093.69;;;-145.77;100.00
26487;BME280;14425;56.136;40.360;2023-06-26T00:59:24;57093.69;;;-145.77;100.00
26487;BME280;14425;56.136;40.360;2023-06-26T01:01:50;57093.69;;;-145.77;100.00
26487;BME280;14425;56.136;40.360;2023-06-26T01:04:15;57093.69;;;-145.77;100.00
26487;BME280;14425;56.136;40.360;2023-06-26T01:06:47;57093.69;;;-145.77;100.00
26487;BME280;14425;56.136;40.360;2023-06-26T01:09:17;57093.69;;;-145.77;100.00
26487;BME280;14425;56.136;40.360;2023-06-26T01:11:43;57093.69;;;-145.77;100.00
26487;BME280;14425;56.136;40.360;2023-06-26T01:14:09;57093.69;;;-145.77;100.00
26487;BME280;14425;56.136;40.360;2023-06-26T01:16:35;57093.69;;;-145.77;100.00
26487;BME280;14425;56.136;40.360;2023-06-26T01:19:01;57093.69;;;-145.77;100.00
26487;BME280;14425;56.136;40.360;2023-06-26T01:21:27;57093.69;;;-145.77;100.00
26487;BME280;14425;56.136;40.360;2023-06-26T01:26:30;57093.69;;;-145.77;100.00
26487;BME280;14425;56.136;40.360;2023-06-26T01:29:01;57093.69;;;-145.77;100.00
26487;BME280;14425;56.136;40.360;2023-06-26T01:31:28;57093.69;;;-145.77;100.00
26487;BME280;14425;56.136;40.360;2023-06-26T01:33:57;57093.69;;;-145.77;100.00
26487;BME280;14425;56.136;40.360;2023-06-26T01:36:24;57093.69;;;-145.77;100.00
26487;BME280;14425;56.136;40.360;2023-06-26T01:38:50;57093.69;;;-145.77;100.00
26487;BME280;14425;56.136;40.360;2023-06-26T01:41:17;57093.69;;;-145.77;100.00
26487;BME280;14425;56.136;40.360;2023-06-26T01:44:01;57093.69;;;-145.77;100.00
26487;BME280;14425;56.136;40.360;2023-06-26T01:52:36;57093.69;;;-145.77;100.00
26487;BME280;14425;56.136;40.360;2023-06-26T01:54:39;57093.69;;;-145.77;100.00
26487;BME280;14425;56.136;40.360;2023-06-26T01:57:08;57093.69;;;-145.77;100.00
26487;BME280;14425;56.136;40.360;2023-06-26T01:59:37;57093.69;;;-145.77;100.00
26487;BME280;14425;56.136;40.360;2023-06-26T02:02:07;57093.69;;;-145.77;100.00
26487;BME280;14425;56.136;40.360;2023-06-26T02:04:32;57093.69;;;-145.77;100.00
26487;BME280;14425;56.136;40.360;2023-06-26T02:06:58;57093.69;;;-145.77;100.00
26487;BME280;14425;56.136;40.360;2023-06-26T02:09:23;57093.69;;;-145.77;100.00
26487;BME280;14425;56.136;40.360;2023-06-26T02:11:49;57093.69;;;-145.77;100.00
26487;BME280;14425;56.136;40.360;2023-06-26T02:14:14;57093.69;;;-145.77;100.00
26487;BME280;14425;56.136;40.360;2023-06-26T02:16:40;57093.69;;;-145.77;100.00
26487;BME280;14425;56.136;40.360;2023-06-26T02:19:06;57093.69;;;-145.77;100.00
26487;BME280;14425;56.136;40.360;2023-06-26T02:21:51;57093.69;;;-145.77;100.00
26487;BME280;14425;56.136;40.360;2023-06-26T02:24:17;57093.69;;;-145.77;100.00
26487;BME280;14425;56.136;40.360;2023-06-26T02:26:42;57093.69;;;-145.77;100.00
26487;BME280;14425;56.136;40.360;2023-06-26T02:29:08;57093.69;;;-145.77;100.00
26487;BME280;14425;56.136;40.360;2023-06-26T02:31:33;57093.69;;;-145.77;100.00
26487;BME280;14425;56.136;40.360;2023-06-26T02:33:59;57093.69;;;-145.77;100.00
26487;BME280;14425;56.136;40.360;2023-06-26T02:36:24;57093.69;;;-145.77;100.00
26487;BME280;14425;56.136;40.360;2023-06-26T02:38:50;57093.69;;;-145.77;100.00
26487;BME280;14425;56.136;40.360;2023-06-26T02:41:15;57093.69;;;-145.77;100.00
26487;BME280;14425;56.136;40.360;2023-06-26T02:43:41;57093.69;;;-145.77;100.00
26487;BME280;14425;56.136;40.360;2023-06-26T02:46:06;57093.69;;;-145.77;100.00
26487;BME280;14425;56.136;40.360;2023-06-26T02:48:32;57093.69;;;-145.77;100.00
26487;BME280;14425;56.136;40.360;2023-06-26T02:50:58;57093.69;;;-145.77;100.00
26487;BME280;14425;56.136;40.360;2023-06-26T02:53:24;57093.69;;;-145.77;100.00
26487;BME280;14425;56.136;40.360;2023-06-26T02:55:49;57093.69;;;-145.77;100.00
26487;BME280;14425;56.136;40.360;2023-06-26T02:58:15;57093.69;;;-145.77;100.00
26487;BME280;14425;56.136;40.360;2023-06-26T03:00:40;57093.69;;;-145.77;100.00
26487;BME280;14425;56.136;40.360;2023-06-26T03:03:07;57093.69;;;-145.77;100.00
26487;BME280;14425;56.136;40.360;2023-06-26T03:05:33;57093.69;;;-145.77;100.00
26487;BME280;14425;56.136;40.360;2023-06-26T03:07:58;57093.69;;;-145.77;100.00
26487;BME280;14425;56.136;40.360;2023-06-26T03:10:24;57093.69;;;-145.77;100.00
26487;BME280;14425;56.136;40.360;2023-06-26T03:12:50;57093.69;;;-145.77;100.00
26487;BME280;14425;56.136;40.360;2023-06-26T03:15:15;57093.69;;;-145.77;100.00
26487;BME280;14425;56.136;40.360;2023-06-26T03:17:41;57093.69;;;-145.77;100.00
26487;BME280;14425;56.136;40.360;2023-06-26T03:20:07;57093.69;;;-145.77;100.00
26487;BME280;14425;56.136;40.360;2023-06-26T03:22:34;57093.69;;;-145.77;100.00
26487;BME280;14425;56.136;40.360;2023-06-26T03:24:59;57093.69;;;-145.77;100.00
26487;BME280;14425;56.136;40.360;2023-06-26T03:27:25;57093.69;;;-145.77;100.00
26487;BME280;14425;56.136;40.360;2023-06-26T03:29:52;57093.69;;;-145.77;100.00
26487;BME280;14425;56.136;40.360;2023-06-26T03:32:18;57093.69;;;-145.77;100.00
26487;BME280;14425;56.136;40.360;2023-06-26T03:34:43;57093.69;;;-145.77;100.00
26487;BME280;14425;56.136;40.360;2023-06-26T03:37:09;57093.69;;;-145.77;100.00
26487;BME280;14425;56.136;40.360;2023-06-26T03:39:35;57093.69;;;-145.77;100.00
26487;BME280;14425;56.136;40.360;2023-06-26T03:42:00;57093.69;;;-145.77;100.00
26487;BME280;14425;56.136;40.360;2023-06-26T03:44:27;57093.69;;;-145.77;100.00
26487;BME280;14425;56.136;40.360;2023-06-26T03:46:53;57093.69;;;-145.77;100.00
26487;BME280;14425;56.136;40.360;2023-06-26T03:49:19;57093.69;;;-145.77;100.00
26487;BME280;14425;56.136;40.360;2023-06-26T03:51:45;57093.69;;;-145.77;100.00
26487;BME280;14425;56.136;40.360;2023-06-26T03:54:11;57093.69;;;-145.77;100.00
26487;BME280;14425;56.136;40.360;2023-06-26T03:56:37;57093.69;;;-145.77;100.00
26487;BME280;14425;56.136;40.360;2023-06-26T03:59:02;57093.69;;;-145.77;100.00
26487;BME280;14425;56.136;40.360;2023-06-26T04:01:28;57093.69;;;-145.77;100.00
26487;BME280;14425;56.136;40.360;2023-06-26T04:03:54;57093.69;;;-145.77;100.00
26487;BME280;14425;56.136;40.360;2023-06-26T04:06:19;57093.69;;;-145.77;100.00
26487;BME280;14425;56.136;40.360;2023-06-26T04:08:45;57093.69;;;-145.77;100.00
26487;BME280;14425;56.136;40.360;2023-06-26T04:11:11;57093.69;;;-145.77;100.00
26487;BME280;14425;56.136;40.360;2023-06-26T04:13:36;57093.69;;;-145.77;100.00
26487;BME280;14425;56.136;40.360;2023-06-26T04:16:02;57093.69;;;-145.77;100.00
26487;BME280;14425;56.136;40.360;2023-06-26T04:18:27;57093.69;;;-145.77;100.00
26487;BME280;14425;56.136;40.360;2023-06-26T04:21:10;57093.69;;;-145.77;100.00
26487;BME280;14425;56.136;40.360;2023-06-26T04:23:38;57093.69;;;-145.77;100.00
26487;BME280;14425;56.136;40.360;2023-06-26T04:26:04;57093.69;;;-145.77;100.00
26487;BME280;14425;56.136;40.360;2023-06-26T04:28:36;57093.69;;;-145.77;100.00
26487;BME280;14425;56.136;40.360;2023-06-26T04:31:02;57093.69;;;-145.77;100.00
26487;BME280;14425;56.136;40.360;2023-06-26T04:33:31;57093.69;;;-145.77;100.00
26487;BME280;14425;56.136;40.360;2023-06-26T04:35:57;57093.69;;;-145.77;100.00
26487;BME280;14425;56.136;40.360;2023-06-26T04:38:23;57093.69;;;-145.77;100.00
26487;BME280;14425;56.136;40.360;2023-06-26T04:40:48;57093.69;;;-145.77;100.00
26487;BME280;14425;56.136;40.360;2023-06-26T04:43:14;57093.69;;;-145.77;100.00
26487;BME280;14425;56.136;40.360;2023-06-26T04:45:40;57093.69;;;-145.77;100.00
26487;BME280;14425;56.136;40.360;2023-06-26T04:48:05;57093.69;;;-145.77;100.00
26487;BME280;14425;56.136;40.360;2023-06-26T04:50:31;57093.69;;;-145.77;100.00
26487;BME280;14425;56.136;40.360;2023-06-26T04:52:57;57093.69;;;-145.77;100.00
26487;BME280;14425;56.136;40.360;2023-06-26T04:55:26;57093.69;;;-145.77;100.00
26487;BME280;14425;56.136;40.360;2023-06-26T04:57:52;57093.69;;;-145.77;100.00
26487;BME280;14425;56.136;40.360;2023-06-26T05:00:18;57093.69;;;-145.77;100.00
26487;BME280;14425;56.136;40.360;2023-06-26T05:02:44;57093.69;;;-145.77;100.00
26487;BME280;14425;56.136;40.360;2023-06-26T05:05:10;57093.69;;;-145.77;100.00
26487;BME280;14425;56.136;40.360;2023-06-26T05:07:37;57093.69;;;-145.77;100.00
26487;BME280;14425;56.136;40.360;2023-06-26T05:10:03;57093.69;;;-145.77;100.00
26487;BME280;14425;56.136;40.360;2023-06-26T05:12:29;57093.69;;;-145.77;100.00
26487;BME280;14425;56.136;40.360;2023-06-26T05:14:55;57093.69;;;-145.77;100.00
26487;BME280;14425;56.136;40.360;2023-06-26T05:17:20;57093.69;;;-145.77;100.00
26487;BME280;14425;56.136;40.360;2023-06-26T05:19:46;57093.69;;;-145.77;100.00
26487;BME280;14425;56.136;40.360;2023-06-26T05:22:12;57093.69;;;-145.77;100.00
26487;BME280;14425;56.136;40.360;2023-06-26T05:24:39;57093.69;;;-145.77;100.00
26487;BME280;14425;56.136;40.360;2023-06-26T05:27:06;57093.69;;;-145.77;100.00
26487;BME280;14425;56.136;40.360;2023-06-26T05:29:32;57093.69;;;-145.77;100.00
26487;BME280;14425;56.136;40.360;2023-06-26T05:31:58;57093.69;;;-145.77;100.00
26487;BME280;14425;56.136;40.360;2023-06-26T05:34:25;57093.69;;;-145.77;100.00
26487;BME280;14425;56.136;40.360;2023-06-26T05:36:57;57093.69;;;-145.77;100.00
26487;BME280;14425;56.136;40.360;2023-06-26T05:39:24;57093.69;;;-145.77;100.00
26487;BME280;14425;56.136;40.360;2023-06-26T05:41:51;57093.69;;;-145.77;100.00
26487;BME280;14425;56.136;40.360;2023-06-26T05:44:17;57093.69;;;-145.77;100.00
26487;BME280;14425;56.136;40.360;2023-06-26T05:46:43;57093.69;;;-145.77;100.00
26487;BME280;14425;56.136;40.360;2023-06-26T05:49:09;57093.69;;;-145.77;100.00
26487;BME280;14425;56.136;40.360;2023-06-26T05:51:35;57093.69;;;-145.77;100.00
26487;BME280;14425;56.136;40.360;2023-06-26T05:54:01;57093.69;;;-145.77;100.00
26487;BME280;14425;56.136;40.360;2023-06-26T05:56:28;57093.69;;;-145.77;100.00
26487;BME280;14425;56.136;40.360;2023-06-26T05:58:54;57093.69;;;-145.77;100.00
26487;BME280;14425;56.136;40.360;2023-06-26T06:01:20;57093.69;;;-145.77;100.00
26487;BME280;14425;56.136;40.360;2023-06-26T06:03:46;57093.69;;;-145.77;100.00
26487;BME280;14425;56.136;40.360;2023-06-26T06:06:12;57093.69;;;-145.77;100.00
26487;BME280;14425;56.136;40.360;2023-06-26T06:08:38;57093.69;;;-145.77;100.00
26487;BME280;14425;56.136;40.360;2023-06-26T06:11:03;57093.69;;;-145.77;100.00
26487;BME280;14425;56.136;40.360;2023-06-26T06:13:29;57093.69;;;-145.77;100.00
26487;BME280;14425;56.136;40.360;2023-06-26T06:15:55;57093.69;;;-145.77;100.00
26487;BME280;14425;56.136;40.360;2023-06-26T06:18:21;57093.69;;;-145.77;100.00
26487;BME280;14425;56.136;40.360;2023-06-26T06:20:47;57093.69;;;-145.77;100.00
26487;BME280;14425;56.136;40.360;2023-06-26T06:23:13;57093.69;;;-145.77;100.00
26487;BME280;14425;56.136;40.360;2023-06-26T06:25:38;57093.69;;;-145.77;100.00
26487;BME280;14425;56.136;40.360;2023-06-26T06:28:05;57093.69;;;-145.77;100.00
26487;BME280;14425;56.136;40.360;2023-06-26T06:30:30;57093.69;;;-145.77;100.00
26487;BME280;14425;56.136;40.360;2023-06-26T06:32:56;57093.69;;;-145.77;100.00
26487;BME280;14425;56.136;40.360;2023-06-26T06:35:21;57093.69;;;-145.77;100.00
26487;BME280;14425;56.136;40.360;2023-06-26T06:37:47;57093.69;;;-145.77;100.00
26487;BME280;14425;56.136;40.360;2023-06-26T06:40:14;57093.69;;;-145.77;100.00
26487;BME280;14425;56.136;40.360;2023-06-26T06:42:39;57093.69;;;-145.77;100.00
26487;BME280;14425;56.136;40.360;2023-06-26T06:45:05;57093.69;;;-145.77;100.00
26487;BME280;14425;56.136;40.360;2023-06-26T06:47:32;57093.69;;;-145.77;100.00
26487;BME280;14425;56.136;40.360;2023-06-26T06:50:00;57093.69;;;-145.77;100.00
26487;BME280;14425;56.136;40.360;2023-06-26T06:52:40;57093.69;;;-145.77;100.00
26487;BME280;14425;56.136;40.360;2023-06-26T06:55:06;57093.69;;;-145.77;100.00
26487;BME280;14425;56.136;40.360;2023-06-26T06:57:39;57093.69;;;-145.77;100.00
26487;BME280;14425;56.136;40.360;2023-06-26T07:00:10;57093.69;;;-145.77;100.00
26487;BME280;14425;56.136;40.360;2023-06-26T07:02:37;57093.69;;;-145.77;100.00
26487;BME280;14425;56.136;40.360;2023-06-26T07:05:04;57093.69;;;-145.77;100.00
26487;BME280;14425;56.136;40.360;2023-06-26T07:07:32;57093.69;;;-145.77;100.00
26487;BME280;14425;56.136;40.360;2023-06-26T07:10:17;57093.69;;;-145.77;100.00
26487;BME280;14425;56.136;40.360;2023-06-26T07:12:42;57093.69;;;-145.77;100.00
26487;BME280;14425;56.136;40.360;2023-06-26T07:15:09;57093.69;;;-145.77;100.00
26487;BME280;14425;56.136;40.360;2023-06-26T07:17:35;57093.69;;;-145.77;100.00
26487;BME280;14425;56.136;40.360;2023-06-26T07:20:03;57093.69;;;-145.77;100.00
26487;BME280;14425;56.136;40.360;2023-06-26T07:22:34;57093.69;;;-145.77;100.00
26487;BME280;14425;56.136;40.360;2023-06-26T07:24:59;57093.69;;;-145.77;100.00
26487;BME280;14425;56.136;40.360;2023-06-26T07:27:25;57093.69;;;-145.77;100.00
26487;BME280;14425;56.136;40.360;2023-06-26T07:29:51;57093.69;;;-145.77;100.00
26487;BME280;14425;56.136;40.360;2023-06-26T07:32:16;57093.69;;;-145.77;100.00
26487;BME280;14425;56.136;40.360;2023-06-26T07:34:42;57093.69;;;-145.77;100.00
26487;BME280;14425;56.136;40.360;2023-06-26T07:37:07;57093.69;;;-145.77;100.00
26487;BME280;14425;56.136;40.360;2023-06-26T07:39:33;57093.69;;;-145.77;100.00
26487;BME280;14425;56.136;40.360;2023-06-26T07:41:58;57093.69;;;-145.77;100.00
26487;BME280;14425;56.136;40.360;2023-06-26T07:44:27;57093.69;;;-145.77;100.00
26487;BME280;14425;56.136;40.360;2023-06-26T07:46:53;57093.69;;;-145.77;100.00
26487;BME280;14425;56.136;40.360;2023-06-26T07:49:18;57093.69;;;-145.77;100.00
26487;BME280;14425;56.136;40.360;2023-06-26T07:51:44;57093.69;;;-145.77;100.00
26487;BME280;14425;56.136;40.360;2023-06-26T07:54:09;57093.69;;;-145.77;100.00
26487;BME280;14425;56.136;40.360;2023-06-26T07:56:55;57093.69;;;-145.77;100.00
26487;BME280;14425;56.136;40.360;2023-06-26T07:59:21;57093.69;;;-145.77;100.00
26487;BME280;14425;56.136;40.360;2023-06-26T08:01:47;57093.69;;;-145.77;100.00
26487;BME280;14425;56.136;40.360;2023-06-26T08:04:13;57093.69;;;-145.77;100.00
26487;BME280;14425;56.136;40.360;2023-06-26T08:06:39;57093.69;;;-145.77;100.00
26487;BME280;14425;56.136;40.360;2023-06-26T08:09:08;57093.69;;;-145.77;100.00
26487;BME280;14425;56.136;40.360;2023-06-26T08:11:34;57093.69;;;-145.77;100.00
26487;BME280;14425;56.136;40.360;2023-06-26T08:13:59;57093.69;;;-145.77;100.00
26487;BME280;14425;56.136;40.360;2023-06-26T08:16:25;57093.69;;;-145.77;100.00
26487;BME280;14425;56.136;40.360;2023-06-26T08:18:51;57093.69;;;-145.77;100.00
26487;BME280;14425;56.136;40.360;2023-06-26T08:21:16;57093.69;;;-145.77;100.00
26487;BME280;14425;56.136;40.360;2023-06-26T08:23:42;57093.69;;;-145.77;100.00
26487;BME280;14425;56.136;40.360;2023-06-26T08:26:08;57093.69;;;-145.77;100.00
26487;BME280;14425;56.136;40.360;2023-06-26T08:28:33;57093.69;;;-145.77;100.00
26487;BME280;14425;56.136;40.360;2023-06-26T08:30:59;57093.69;;;-145.77;100.00
26487;BME280;14425;56.136;40.360;2023-06-26T08:33:25;57093.69;;;-145.77;100.00
26487;BME280;14425;56.136;40.360;2023-06-26T08:35:51;57093.69;;;-145.77;100.00
26487;BME280;14425;56.136;40.360;2023-06-26T08:38:16;57093.69;;;-145.77;100.00
26487;BME280;14425;56.136;40.360;2023-06-26T08:40:42;57093.69;;;-145.77;100.00
26487;BME280;14425;56.136;40.360;2023-06-26T08:43:08;57093.69;;;-145.77;100.00
26487;BME280;14425;56.136;40.360;2023-06-26T08:45:33;57093.69;;;-145.77;100.00
26487;BME280;14425;56.136;40.360;2023-06-26T08:48:00;57093.69;;;-145.77;100.00
26487;BME280;14425;56.136;40.360;2023-06-26T08:50:30;57093.69;;;-145.77;100.00
26487;BME280;14425;56.136;40.360;2023-06-26T08:53:04;57093.69;;;-145.77;100.00
26487;BME280;14425;56.136;40.360;2023-06-26T08:55:35;57093.69;;;-145.77;100.00
26487;BME280;14425;56.136;40.360;2023-06-26T08:58:04;57093.69;;;-145.77;100.00
26487;BME280;14425;56.136;40.360;2023-06-26T09:00:30;57093.69;;;-145.77;100.00
26487;BME280;14425;56.136;40.360;2023-06-26T09:02:56;57093.69;;;-145.77;100.00
26487;BME280;14425;56.136;40.360;2023-06-26T09:05:22;57093.69;;;-145.77;100.00
26487;BME280;14425;56.136;40.360;2023-06-26T09:07:47;57093.69;;;-145.77;100.00
26487;BME280;14425;56.136;40.360;2023-06-26T09:10:13;57093.69;;;-145.77;100.00
26487;BME280;14425;56.136;40.360;2023-06-26T09:12:39;57093.69;;;-145.77;100.00
26487;BME280;14425;56.136;40.360;2023-06-26T09:15:06;57093.69;;;-145.77;100.00
26487;BME280;14425;56.136;40.360;2023-06-26T09:17:39;57093.69;;;-145.77;100.00
26487;BME280;14425;56.136;40.360;2023-06-26T09:20:08;57093.69;;;-145.77;100.00
26487;BME280;14425;56.136;40.360;2023-06-26T09:22:36;57093.69;;;-145.77;100.00
26487;BME280;14425;56.136;40.360;2023-06-26T09:25:05;57093.69;;;-145.77;100.00
26487;BME280;14425;56.136;40.360;2023-06-26T09:27:30;57093.69;;;-145.77;100.00
26487;BME280;14425;56.136;40.360;2023-06-26T09:29:57;57093.69;;;-145.77;100.00
26487;BME280;14425;56.136;40.360;2023-06-26T09:32:24;57093.69;;;-145.77;100.00
26487;BME280;14425;56.136;40.360;2023-06-26T09:34:52;57093.69;;;-145.77;100.00
26487;BME280;14425;56.136;40.360;2023-06-26T09:37:18;57093.69;;;-145.77;100.00
26487;BME280;14425;56.136;40.360;2023-06-26T09:39:44;57093.69;;;-145.77;100.00
26487;BME280;14425;56.136;40.360;2023-06-26T09:42:10;57093.69;;;-145.77;100.00
26487;BME280;14425;56.136;40.360;2023-06-26T09:44:36;57093.69;;;-145.77;100.00
26487;BME280;14425;56.136;40.360;2023-06-26T09:47:02;57093.69;;;-145.77;100.00
26487;BME280;14425;56.136;40.360;2023-06-26T09:49:30;57093.69;;;-145.77;100.00
26487;BME280;14425;56.136;40.360;2023-06-26T09:51:56;57093.69;;;-145.77;100.00
26487;BME280;14425;56.136;40.360;2023-06-26T09:54:22;57093.69;;;-145.77;100.00
26487;BME280;14425;56.136;40.360;2023-06-26T09:56:49;57093.69;;;-145.77;100.00
26487;BME280;14425;56.136;40.360;2023-06-26T09:59:15;57093.69;;;-145.77;100.00
26487;BME280;14425;56.136;40.360;2023-06-26T10:01:45;57093.69;;;-145.77;100.00
26487;BME280;14425;56.136;40.360;2023-06-26T10:04:10;57093.69;;;-145.77;100.00
26487;BME280;14425;56.136;40.360;2023-06-26T10:06:40;57093.69;;;-145.77;100.00
26487;BME280;14425;56.136;40.360;2023-06-26T10:09:06;57093.69;;;-145.77;100.00
26487;BME280;14425;56.136;40.360;2023-06-26T10:14:07;57093.69;;;-145.77;100.00
26487;BME280;14425;56.136;40.360;2023-06-26T10:16:34;57093.69;;;-145.77;100.00
26487;BME280;14425;56.136;40.360;2023-06-26T10:19:05;57093.69;;;-145.77;100.00
26487;BME280;14425;56.136;40.360;2023-06-26T10:21:34;57093.69;;;-145.77;100.00
26487;BME280;14425;56.136;40.360;2023-06-26T10:24:00;57093.69;;;-145.77;100.00
26487;BME280;14425;56.136;40.360;2023-06-26T10:26:30;57093.69;;;-145.77;100.00
26487;BME280;14425;56.136;40.360;2023-06-26T10:28:57;57093.69;;;-145.77;100.00
26487;BME280;14425;56.136;40.360;2023-06-26T10:31:26;57093.69;;;-145.77;100.00
26487;BME280;14425;56.136;40.360;2023-06-26T10:33:53;57093.69;;;-145.77;100.00
26487;BME280;14425;56.136;40.360;2023-06-26T10:36:27;57093.69;;;-145.77;100.00
26487;BME280;14425;56.136;40.360;2023-06-26T10:39:05;57093.69;;;-145.77;100.00
26487;BME280;14425;56.136;40.360;2023-06-26T10:41:38;57093.69;;;-145.77;100.00
26487;BME280;14425;56.136;40.360;2023-06-26T10:44:16;57093.69;;;-145.77;100.00
26487;BME280;14425;56.136;40.360;2023-06-26T10:46:52;57093.69;;;-145.77;100.00
26487;BME280;14425;56.136;40.360;2023-06-26T10:49:20;57093.69;;;-145.77;100.00
26487;BME280;14425;56.136;40.360;2023-06-26T10:51:50;57093.69;;;-145.77;100.00
26487;BME280;14425;56.136;40.360;2023-06-26T10:54:18;57093.69;;;-145.77;100.00
26487;BME280;14425;56.136;40.360;2023-06-26T10:56:54;57093.69;;;-145.77;100.00
26487;BME280;14425;56.136;40.360;2023-06-26T10:59:25;57093.69;;;-145.77;100.00
26487;BME280;14425;56.136;40.360;2023-06-26T11:04:36;57093.69;;;-145.77;100.00
26487;BME280;14425;56.136;40.360;2023-06-26T11:10:09;57093.69;;;-145.77;100.00
26487;BME280;14425;56.136;40.360;2023-06-26T11:12:35;57093.69;;;-145.77;100.00
26487;BME280;14425;56.136;40.360;2023-06-26T11:15:16;57093.69;;;-145.77;100.00
26487;BME280;14425;56.136;40.360;2023-06-26T11:17:43;57093.69;;;-145.77;100.00
26487;BME280;14425;56.136;40.360;2023-06-26T11:20:11;57093.69;;;-145.77;100.00
26487;BME280;14425;56.136;40.360;2023-06-26T11:22:39;57093.69;;;-145.77;100.00
26487;BME280;14425;56.136;40.360;2023-06-26T11:25:06;57093.69;;;-145.77;100.00
26487;BME280;14425;56.136;40.360;2023-06-26T11:27:37;57093.69;;;-145.77;100.00
26487;BME280;14425;56.136;40.360;2023-06-26T11:30:04;57093.69;;;-145.77;100.00
26487;BME280;14425;56.136;40.360;2023-06-26T11:32:31;57093.69;;;-145.77;100.00
26487;BME280;14425;56.136;40.360;2023-06-26T11:34:59;57093.69;;;-145.77;100.00
26487;BME280;14425;56.136;40.360;2023-06-26T11:37:25;57093.69;;;-145.77;100.00
26487;BME280;14425;56.136;40.360;2023-06-26T11:39:51;57093.69;;;-145.77;100.00
26487;BME280;14425;56.136;40.360;2023-06-26T11:42:20;57093.69;;;-145.77;100.00
26487;BME280;14425;56.136;40.360;2023-06-26T11:44:46;57093.69;;;-145.77;100.00
26487;BME280;14425;56.136;40.360;2023-06-26T11:47:16;57093.69;;;-145.77;100.00
26487;BME280;14425;56.136;40.360;2023-06-26T11:49:47;57093.69;;;-145.77;100.00
26487;BME280;14425;56.136;40.360;2023-06-26T11:52:13;57093.69;;;-145.77;100.00
26487;BME280;14425;56.136;40.360;2023-06-26T11:54:40;57093.69;;;-145.77;100.00
26487;BME280;14425;56.136;40.360;2023-06-26T11:57:06;57093.69;;;-145.77;100.00
26487;BME280;14425;56.136;40.360;2023-06-26T11:59:38;57093.69;;;-145.77;100.00
26487;BME280;14425;56.136;40.360;2023-06-26T12:02:11;57093.69;;;-145.77;100.00
26487;BME280;14425;56.136;40.360;2023-06-26T12:04:40;57093.69;;;-145.77;100.00
26487;BME280;14425;56.136;40.360;2023-06-26T12:07:08;57093.69;;;-145.77;100.00
26487;BME280;14425;56.136;40.360;2023-06-26T12:09:43;57093.69;;;-145.77;100.00
26487;BME280;14425;56.136;40.360;2023-06-26T12:12:14;57093.69;;;-145.77;100.00
26487;BME280;14425;56.136;40.360;2023-06-26T12:14:40;57093.69;;;-145.77;100.00
26487;BME280;14425;56.136;40.360;2023-06-26T12:17:10;57093.69;;;-145.77;100.00
26487;BME280;14425;56.136;40.360;2023-06-26T12:19:37;57093.69;;;-145.77;100.00
26487;BME280;14425;56.136;40.360;2023-06-26T12:22:06;57093.69;;;-145.77;100.00
26487;BME280;14425;56.136;40.360;2023-06-26T12:24:32;57093.69;;;-145.77;100.00
26487;BME280;14425;56.136;40.360;2023-06-26T12:26:58;57093.69;;;-145.77;100.00
26487;BME280;14425;56.136;40.360;2023-06-26T12:29:32;57093.69;;;-145.77;100.00
26487;BME280;14425;56.136;40.360;2023-06-26T12:31:58;57093.69;;;-145.77;100.00
26487;BME280;14425;56.136;40.360;2023-06-26T12:34:33;57093.69;;;-145.77;100.00
26487;BME280;14425;56.136;40.360;2023-06-26T12:37:01;57093.69;;;-145.77;100.00